Time;durP1;ratioP1;P1;durP2;ratioP2;P2;SDS_P1;SDS_P2;PMS_P1;PMS_P2;Temp;Humidity;BMP_temperature;BMP_pressure;BME280_temperature;BME280_humidity;BME280_pressure;Samples;Min_cycle;Max_cycle;Signal;HPM_P1;HPM_P2
2022/07/10 00:01:26;;;;;;;7.45;1.67;;;13.80;99.90;;;;;;6218153;23;20020;-87
2022/07/10 00:03:51;;;;;;;8.40;1.40;;;13.80;99.90;;;;;;6245232;23;20023;-84
2022/07/10 00:06:17;;;;;;;6.43;1.50;;;13.90;99.90;;;;;;6217619;23;20020;-85
2022/07/10 00:08:43;;;;;;;11.95;1.38;;;13.80;99.90;;;;;;6244764;23;20012;-83
2022/07/10 00:11:10;;;;;;;10.30;1.63;;;13.80;99.90;;;;;;6244698;23;20452;-84
2022/07/10 00:13:36;;;;;;;7.85;1.42;;;13.70;99.90;;;;;;6217140;23;20090;-84
2022/07/10 00:16:01;;;;;;;9.20;1.85;;;13.60;99.90;;;;;;6217971;23;20016;-84
2022/07/10 00:18:28;;;;;;;6.22;1.70;;;13.70;99.90;;;;;;6192432;23;20024;-84
2022/07/10 00:20:54;;;;;;;8.50;1.50;;;13.60;99.90;;;;;;6218076;23;20020;-87
2022/07/10 00:23:19;;;;;;;7.25;1.40;;;13.60;99.90;;;;;;6244747;23;20321;-86
2022/07/10 00:25:45;;;;;;;6.07;1.30;;;13.70;99.90;;;;;;6217714;23;20448;-85
2022/07/10 00:28:11;;;;;;;9.77;1.95;;;13.70;99.90;;;;;;6218143;23;20012;-84
2022/07/10 00:30:37;;;;;;;10.55;1.55;;;13.60;99.90;;;;;;6244748;23;20030;-85
2022/07/10 00:33:03;;;;;;;10.13;1.50;;;13.60;99.90;;;;;;6244651;23;20070;-84
2022/07/10 00:35:29;;;;;;;7.50;1.90;;;13.70;99.90;;;;;;6217945;23;20020;-85
2022/07/10 00:37:55;;;;;;;8.65;1.45;;;13.50;99.90;;;;;;6217326;23;20090;-86
2022/07/10 00:40:21;;;;;;;7.90;1.65;;;13.50;99.90;;;;;;6244179;23;20460;-85
2022/07/10 00:42:46;;;;;;;7.55;1.33;;;13.50;99.90;;;;;;6192837;23;20107;-84
2022/07/10 00:45:12;;;;;;;9.43;1.98;;;13.40;99.90;;;;;;6244481;23;20020;-85
2022/07/10 00:47:38;;;;;;;7.72;1.35;;;13.40;99.90;;;;;;6244495;23;20014;-84
2022/07/10 00:50:06;;;;;;;9.75;1.75;;;13.40;99.90;;;;;;6244475;23;20027;-84
2022/07/10 00:52:35;;;;;;;9.10;1.63;;;13.40;99.90;;;;;;6244583;23;20012;-87
2022/07/10 00:55:01;;;;;;;7.38;1.30;;;13.30;99.90;;;;;;6244396;23;20474;-85
2022/07/10 00:57:27;;;;;;;6.82;1.50;;;13.30;99.90;;;;;;6217741;23;20027;-85
2022/07/10 00:59:53;;;;;;;7.25;1.42;;;13.30;99.90;;;;;;6217432;23;20020;-89
2022/07/10 01:02:20;;;;;;;13.40;1.58;;;13.30;99.90;;;;;;6217752;23;20061;-85
2022/07/10 01:04:46;;;;;;;11.23;1.70;;;13.30;99.90;;;;;;6244597;23;20022;-85
2022/07/10 01:07:15;;;;;;;8.93;1.58;;;13.40;99.90;;;;;;6217112;23;20019;-84
2022/07/10 01:09:41;;;;;;;11.15;1.77;;;13.30;99.90;;;;;;6217443;23;20016;-86
2022/07/10 01:12:10;;;;;;;12.90;1.70;;;13.30;99.90;;;;;;6217751;23;20023;-84
2022/07/10 01:14:39;;;;;;;8.25;1.70;;;13.20;99.90;;;;;;6244476;23;20020;-84
2022/07/10 01:17:06;;;;;;;6.13;1.52;;;13.10;99.90;;;;;;6216658;23;20411;-84
2022/07/10 01:19:32;;;;;;;13.05;1.73;;;13.00;99.90;;;;;;6243997;23;20507;-84
2022/07/10 01:21:57;;;;;;;8.95;1.30;;;13.00;99.90;;;;;;6244435;23;20020;-84
2022/07/10 01:24:24;;;;;;;9.85;1.70;;;13.00;99.90;;;;;;6246448;23;20035;-86
2022/07/10 01:26:49;;;;;;;9.95;1.45;;;12.90;99.90;;;;;;6246484;23;20020;-85
2022/07/10 01:29:15;;;;;;;14.52;1.83;;;12.90;99.90;;;;;;6246275;23;20328;-84
2022/07/10 01:31:40;;;;;;;7.85;1.35;;;12.80;99.90;;;;;;6246315;23;20066;-84
2022/07/10 01:34:10;;;;;;;10.60;1.60;;;12.90;99.90;;;;;;6246321;23;20098;-84
2022/07/10 01:36:37;;;;;;;9.45;1.52;;;12.70;99.90;;;;;;6219599;23;20526;-84
2022/07/10 01:39:03;;;;;;;13.70;1.75;;;12.70;99.90;;;;;;6218724;23;20023;-85
2022/07/10 01:41:29;;;;;;;6.35;1.60;;;12.50;99.90;;;;;;6246305;23;20024;-87
2022/07/10 01:43:54;;;;;;;8.80;1.63;;;12.50;99.90;;;;;;6219643;23;20347;-85
2022/07/10 01:46:20;;;;;;;10.68;1.63;;;12.40;99.90;;;;;;6219041;23;20029;-84
2022/07/10 01:48:46;;;;;;;10.45;2.08;;;12.50;99.90;;;;;;6246181;23;20009;-83
2022/07/10 01:51:12;;;;;;;7.63;1.70;;;12.40;99.90;;;;;;6246106;23;20023;-85
2022/07/10 01:53:40;;;;;;;10.45;1.80;;;12.40;99.90;;;;;;6194343;23;20016;-85
2022/07/10 01:56:08;;;;;;;8.55;1.60;;;12.30;99.90;;;;;;6246002;23;20055;-84
2022/07/10 01:58:34;;;;;;;9.77;1.50;;;12.30;99.90;;;;;;6219430;23;20440;-84
2022/07/10 02:01:01;;;;;;;14.55;1.83;;;12.30;99.90;;;;;;6246109;23;20070;-85
2022/07/10 02:06:11;;;;;;;12.68;2.20;;;12.40;99.90;;;;;;6219190;23;20031;-84
2022/07/10 02:08:36;;;;;;;9.48;1.92;;;12.40;99.90;;;;;;6245991;23;20024;-83
2022/07/10 02:11:02;;;;;;;8.80;1.50;;;12.30;99.90;;;;;;6218553;23;20321;-83
2022/07/10 02:13:28;;;;;;;4.38;1.10;;;12.30;99.90;;;;;;6245677;23;20016;-83
2022/07/10 02:15:54;;;;;;;11.20;1.40;;;12.30;99.90;;;;;;6246219;23;20024;-84
2022/07/10 02:18:20;;;;;;;12.30;1.70;;;12.20;99.90;;;;;;6246146;23;20269;-84
2022/07/10 02:20:46;;;;;;;8.73;1.60;;;12.10;99.90;;;;;;6219206;23;20066;-83
2022/07/10 02:23:12;;;;;;;11.30;1.40;;;12.10;99.90;;;;;;6219230;23;20027;-88
2022/07/10 02:25:38;;;;;;;10.90;1.55;;;12.10;99.90;;;;;;6218919;23;20468;-83
2022/07/10 02:28:03;;;;;;;8.68;1.45;;;12.10;99.90;;;;;;6245725;23;20012;-85
2022/07/10 02:30:29;;;;;;;9.70;1.77;;;12.00;99.90;;;;;;6218868;23;20016;-83
2022/07/10 02:32:55;;;;;;;9.98;1.70;;;12.00;99.90;;;;;;6245756;23;20310;-85
2022/07/10 02:35:21;;;;;;;10.32;1.92;;;11.90;99.90;;;;;;6193347;23;20016;-83
2022/07/10 02:37:46;;;;;;;12.65;1.40;;;11.90;99.90;;;;;;6245548;23;20020;-87
2022/07/10 02:40:12;;;;;;;8.85;1.50;;;11.90;99.90;;;;;;6218444;23;20016;-84
2022/07/10 02:42:38;;;;;;;7.63;1.52;;;12.00;99.90;;;;;;6218922;23;20065;-86
2022/07/10 02:45:04;;;;;;;16.70;2.08;;;12.00;99.90;;;;;;6218884;23;20027;-83
2022/07/10 02:47:30;;;;;;;12.68;1.88;;;12.10;99.90;;;;;;6245449;23;20023;-86
2022/07/10 02:49:56;;;;;;;7.63;1.42;;;12.20;99.90;;;;;;6218789;23;20043;-87
2022/07/10 02:52:21;;;;;;;10.75;1.42;;;12.30;99.90;;;;;;6245640;23;20074;-86
2022/07/10 02:54:47;;;;;;;9.25;1.20;;;12.40;99.90;;;;;;6194007;23;20028;-83
2022/07/10 02:57:13;;;;;;;10.98;1.75;;;12.30;99.90;;;;;;6245840;23;20028;-85
2022/07/10 02:59:39;;;;;;;11.10;1.55;;;12.30;99.90;;;;;;6245257;23;20016;-83
2022/07/10 03:02:05;;;;;;;6.78;1.27;;;12.20;99.90;;;;;;6245497;23;20024;-86
2022/07/10 03:04:30;;;;;;;8.95;1.55;;;12.20;99.90;;;;;;6245507;23;20031;-84
2022/07/10 03:06:56;;;;;;;7.50;1.65;;;12.10;99.90;;;;;;6245323;23;20336;-85
2022/07/10 03:09:21;;;;;;;10.35;1.52;;;12.10;99.90;;;;;;6218461;23;20021;-83
2022/07/10 03:11:47;;;;;;;7.30;1.25;;;12.00;99.90;;;;;;6245136;23;20042;-85
2022/07/10 03:14:12;;;;;;;13.68;1.73;;;12.00;99.90;;;;;;6245180;23;20359;-84
2022/07/10 03:16:38;;;;;;;8.25;1.75;;;12.00;99.90;;;;;;6244940;23;20473;-84
2022/07/10 03:19:04;;;;;;;8.50;1.63;;;12.00;99.90;;;;;;6245109;23;20012;-84
2022/07/10 03:21:30;;;;;;;11.02;1.77;;;12.00;99.90;;;;;;6218714;23;20020;-83
2022/07/10 03:23:56;;;;;;;10.88;1.70;;;11.90;99.90;;;;;;6245358;23;20028;-84
2022/07/10 03:26:22;;;;;;;12.40;1.40;;;11.90;99.90;;;;;;6245288;23;20021;-84
2022/07/10 03:28:47;;;;;;;13.15;1.73;;;11.90;99.90;;;;;;6218367;23;20024;-84
2022/07/10 03:31:13;;;;;;;10.90;1.35;;;12.00;99.90;;;;;;6245397;23;20340;-84
2022/07/10 03:33:39;;;;;;;7.68;1.10;;;12.00;99.90;;;;;;6218459;23;20020;-84
2022/07/10 03:36:05;;;;;;;6.68;1.38;;;12.20;99.90;;;;;;6218191;23;20020;-85
2022/07/10 03:38:30;;;;;;;8.80;1.40;;;12.20;99.90;;;;;;6218428;23;20482;-83
2022/07/10 03:40:56;;;;;;;7.25;1.65;;;12.20;99.90;;;;;;6218380;23;20055;-87
2022/07/10 03:43:22;;;;;;;8.98;1.52;;;12.30;99.90;;;;;;6244990;23;20328;-85
2022/07/10 03:45:47;;;;;;;9.55;1.88;;;12.40;99.90;;;;;;6244929;23;20020;-84
2022/07/10 03:48:13;;;;;;;7.72;1.48;;;12.30;99.90;;;;;;6192653;23;20062;-84
2022/07/10 03:50:38;;;;;;;9.13;1.42;;;12.40;99.90;;;;;;6244853;23;20051;-84
2022/07/10 03:53:04;;;;;;;12.02;1.40;;;12.40;99.90;;;;;;6218169;23;20070;-84
2022/07/10 03:55:30;;;;;;;11.85;1.50;;;12.60;99.90;;;;;;6218280;23;20066;-84
2022/07/10 03:57:56;;;;;;;6.88;1.10;;;12.60;99.90;;;;;;6244484;23;20016;-85
2022/07/10 04:00:32;;;;;;;10.18;1.60;;;12.70;99.90;;;;;;6217835;23;20022;-85
2022/07/10 04:03:03;;;;;;;7.75;1.50;;;12.80;99.90;;;;;;6193123;23;20101;-84
2022/07/10 04:05:29;;;;;;;6.97;1.13;;;12.70;99.90;;;;;;6244737;23;20016;-83
2022/07/10 04:07:56;;;;;;;10.35;1.20;;;12.70;99.90;;;;;;6244683;23;20055;-84
2022/07/10 04:10:23;;;;;;;10.90;1.45;;;12.80;99.90;;;;;;6244851;23;20020;-84
2022/07/10 04:12:49;;;;;;;8.18;1.45;;;12.90;99.90;;;;;;6217769;23;20020;-88
2022/07/10 04:15:15;;;;;;;9.05;1.42;;;12.80;99.90;;;;;;6244282;23;20047;-83
2022/07/10 04:17:41;;;;;;;9.43;1.27;;;12.90;99.90;;;;;;6192763;23;20020;-82
2022/07/10 04:20:07;;;;;;;6.75;1.08;;;12.90;99.90;;;;;;6244812;23;20016;-84
2022/07/10 04:22:33;;;;;;;6.88;1.15;;;13.00;99.90;;;;;;6244661;23;20095;-84
2022/07/10 04:24:59;;;;;;;9.70;1.20;;;13.10;99.90;;;;;;6244714;23;20162;-85
2022/07/10 04:27:24;;;;;;;9.90;1.40;;;13.00;99.90;;;;;;6244844;23;20495;-83
2022/07/10 04:29:50;;;;;;;6.55;1.20;;;13.10;99.90;;;;;;6217614;23;20055;-84
2022/07/10 04:32:16;;;;;;;13.60;1.65;;;12.90;99.90;;;;;;6217933;23;20023;-83
2022/07/10 04:34:42;;;;;;;6.18;1.17;;;13.00;99.90;;;;;;6244540;23;20016;-82
2022/07/10 04:37:08;;;;;;;14.25;1.85;;;13.00;99.90;;;;;;6243975;23;20095;-83
2022/07/10 04:39:37;;;;;;;5.85;1.20;;;13.00;99.90;;;;;;6191962;23;20024;-84
2022/07/10 04:42:04;;;;;;;9.85;1.83;;;13.00;99.90;;;;;;6217852;23;20027;-83
2022/07/10 04:44:30;;;;;;;9.82;1.20;;;13.10;99.90;;;;;;6217238;23;20024;-83
2022/07/10 04:46:55;;;;;;;6.70;1.17;;;13.30;99.90;;;;;;6217843;23;20026;-85
2022/07/10 04:49:21;;;;;;;9.20;1.40;;;13.50;99.90;;;;;;6244517;23;20039;-84
2022/07/10 04:51:47;;;;;;;13.23;1.40;;;13.60;99.90;;;;;;6244584;23;20022;-84
2022/07/10 04:54:12;;;;;;;9.95;1.40;;;13.70;99.90;;;;;;6217604;23;20090;-84
2022/07/10 04:56:38;;;;;;;6.50;1.38;;;13.80;99.90;;;;;;6217082;23;20087;-85
2022/07/10 04:59:05;;;;;;;11.43;1.05;;;13.80;99.90;;;;;;6217504;23;20028;-84
2022/07/10 05:01:31;;;;;;;11.52;1.35;;;13.90;99.90;;;;;;6217686;23;20019;-87
2022/07/10 05:03:57;;;;;;;7.15;1.00;;;13.90;99.90;;;;;;6244607;23;20142;-83
2022/07/10 05:06:23;;;;;;;10.52;1.45;;;14.00;99.90;;;;;;6217896;23;20095;-85
2022/07/10 05:08:49;;;;;;;9.50;1.52;;;14.00;99.90;;;;;;6217617;23;20087;-85
2022/07/10 05:11:14;;;;;;;5.85;1.10;;;14.20;99.90;;;;;;6217703;23;20344;-86
2022/07/10 05:13:43;;;;;;;7.45;1.65;;;14.20;99.90;;;;;;6217224;23;20335;-84
2022/07/10 05:16:09;;;;;;;5.78;1.35;;;14.30;99.90;;;;;;6217636;23;20348;-85
2022/07/10 05:18:35;;;;;;;7.53;1.50;;;14.30;99.90;;;;;;6244631;23;20016;-84
2022/07/10 05:21:00;;;;;;;9.00;1.20;;;14.40;99.90;;;;;;6216416;23;20440;-84
2022/07/10 05:23:26;;;;;;;8.55;1.63;;;14.50;99.90;;;;;;6218078;23;20382;-83
2022/07/10 05:25:52;;;;;;;9.13;1.25;;;14.60;99.90;;;;;;6217296;23;20465;-84
2022/07/10 05:28:17;;;;;;;7.32;1.48;;;14.60;99.90;;;;;;6244240;23;20008;-84
2022/07/10 05:30:43;;;;;;;7.95;1.42;;;14.60;99.90;;;;;;6244333;23;20078;-86
2022/07/10 05:33:09;;;;;;;15.60;1.67;;;14.70;99.90;;;;;;6217515;23;20020;-85
2022/07/10 05:35:34;;;;;;;9.40;1.52;;;14.70;99.90;;;;;;6217864;23;20040;-83
2022/07/10 05:38:00;;;;;;;11.18;1.92;;;14.80;99.90;;;;;;6244125;23;20051;-83
2022/07/10 05:40:26;;;;;;;6.10;1.65;;;14.80;99.90;;;;;;6244451;23;20078;-83
2022/07/10 05:42:52;;;;;;;9.15;1.73;;;14.90;99.90;;;;;;6244246;23;20074;-88
2022/07/10 05:45:18;;;;;;;11.82;1.70;;;14.90;99.90;;;;;;6217078;23;20456;-83
2022/07/10 05:47:44;;;;;;;8.48;1.65;;;15.00;99.90;;;;;;6191831;23;20019;-85
2022/07/10 05:50:11;;;;;;;7.30;1.58;;;14.90;99.90;;;;;;6244589;23;20051;-84
2022/07/10 05:52:37;;;;;;;9.88;2.13;;;14.90;99.90;;;;;;6191794;23;20407;-85
2022/07/10 05:55:03;;;;;;;7.40;1.75;;;14.90;99.90;;;;;;6244216;23;20101;-84
2022/07/10 05:57:31;;;;;;;15.65;2.08;;;14.90;99.90;;;;;;6217276;23;20347;-84
2022/07/10 06:00:14;;;;;;;11.38;1.98;;;15.00;99.90;;;;;;6217375;23;20441;-83
2022/07/10 06:02:41;;;;;;;7.07;1.63;;;15.00;99.90;;;;;;6217686;23;20043;-85
2022/07/10 06:05:07;;;;;;;9.98;1.85;;;15.10;99.90;;;;;;6244187;23;20448;-85
2022/07/10 06:07:34;;;;;;;9.15;1.50;;;15.10;99.90;;;;;;6244100;23;20026;-84
2022/07/10 06:09:59;;;;;;;8.02;1.63;;;15.20;99.90;;;;;;6246189;23;20066;-84
2022/07/10 06:12:25;;;;;;;7.45;1.65;;;15.10;99.90;;;;;;6219243;23;20012;-84
2022/07/10 06:14:51;;;;;;;8.90;1.88;;;15.20;99.90;;;;;;6214361;23;20024;-83
2022/07/10 06:17:16;;;;;;;8.15;1.77;;;15.30;99.90;;;;;;6188845;23;20095;-84
2022/07/10 06:19:42;;;;;;;10.95;1.90;;;15.40;99.90;;;;;;6216152;23;20048;-83
2022/07/10 06:24:52;;;;;;;9.27;1.80;;;15.40;99.90;;;;;;6214561;23;20087;-85
2022/07/10 06:27:17;;;;;;;7.57;1.63;;;15.30;99.90;;;;;;6213615;23;20024;-83
2022/07/10 06:29:44;;;;;;;8.73;2.10;;;15.10;99.90;;;;;;6214318;23;20020;-83
2022/07/10 06:32:10;;;;;;;8.57;1.83;;;15.20;99.90;;;;;;6216637;23;20095;-84
2022/07/10 06:34:36;;;;;;;8.70;1.80;;;15.30;99.90;;;;;;6215442;23;20048;-84
2022/07/10 06:37:02;;;;;;;6.95;1.15;;;15.30;99.90;;;;;;6217098;23;20063;-84
2022/07/10 06:39:35;;;;;;;9.63;1.85;;;15.30;99.90;;;;;;6216934;23;20336;-84
2022/07/10 06:42:04;;;;;;;8.18;1.45;;;15.30;99.90;;;;;;6216924;23;20016;-85
2022/07/10 06:44:30;;;;;;;5.78;1.73;;;15.40;99.90;;;;;;6215194;23;20099;-83
2022/07/10 06:49:43;;;;;;;7.72;1.60;;;15.60;99.90;;;;;;6214442;23;20078;-85
2022/07/10 06:52:09;;;;;;;7.07;1.27;;;15.70;99.90;;;;;;6189322;23;20027;-84
2022/07/10 06:54:35;;;;;;;8.02;1.50;;;15.80;99.90;;;;;;6215016;23;20026;-83
2022/07/10 06:57:01;;;;;;;4.65;1.20;;;15.80;99.90;;;;;;6216547;23;20095;-85
2022/07/10 06:59:27;;;;;;;7.57;1.90;;;15.80;99.90;;;;;;6216622;23;20020;-84
2022/07/10 07:01:52;;;;;;;10.30;1.75;;;15.70;99.90;;;;;;6216491;23;20024;-85
2022/07/10 07:04:18;;;;;;;9.02;1.90;;;15.50;99.90;;;;;;6216340;23;20023;-85
2022/07/10 07:06:44;;;;;;;6.45;1.83;;;15.30;99.90;;;;;;6216340;23;20118;-85
2022/07/10 07:09:09;;;;;;;10.27;2.38;;;15.10;99.90;;;;;;6214773;23;20376;-84
2022/07/10 07:11:35;;;;;;;11.15;2.22;;;15.10;99.90;;;;;;6214793;23;20023;-87
2022/07/10 07:14:00;;;;;;;7.60;1.60;;;15.10;99.90;;;;;;6222211;23;20071;-83
2022/07/10 07:16:41;;;;;;;5.68;1.45;;;15.00;99.90;;;;;;6246490;23;20020;-85
2022/07/10 07:19:07;;;;;;;6.35;1.65;;;14.90;99.90;;;;;;6219851;23;20389;-84
2022/07/10 07:24:20;;;;;;;10.68;1.70;;;15.00;99.90;;;;;;6219327;23;20396;-84
2022/07/10 07:26:47;;;;;;;5.93;1.48;;;15.10;99.90;;;;;;6246060;23;20448;-86
2022/07/10 07:29:14;;;;;;;5.97;1.48;;;15.20;99.90;;;;;;6246098;23;20020;-85
2022/07/10 07:31:39;;;;;;;7.10;1.67;;;15.10;99.90;;;;;;6194600;23;20016;-86
2022/07/10 07:34:05;;;;;;;7.90;1.48;;;15.00;99.90;;;;;;6219700;23;20016;-86
2022/07/10 07:36:31;;;;;;;7.40;1.77;;;14.90;99.90;;;;;;6246355;23;20436;-83
2022/07/10 07:38:56;;;;;;;8.80;1.73;;;14.80;99.90;;;;;;6219914;23;20020;-83
2022/07/10 07:41:22;;;;;;;5.43;1.77;;;14.80;99.90;;;;;;6246302;23;20020;-82
2022/07/10 07:43:49;;;;;;;5.63;1.20;;;14.90;99.90;;;;;;6219814;23;20012;-83
2022/07/10 07:46:14;;;;;;;9.30;1.77;;;15.00;99.90;;;;;;6194386;23;20317;-83
2022/07/10 07:48:40;;;;;;;6.40;1.63;;;15.10;99.90;;;;;;6218915;23;20078;-84
2022/07/10 07:51:06;;;;;;;4.00;1.33;;;15.30;99.90;;;;;;6246084;23;20019;-84
2022/07/10 07:53:32;;;;;;;5.72;1.10;;;15.50;99.90;;;;;;6219462;23;20095;-84
2022/07/10 07:55:58;;;;;;;4.07;1.13;;;15.60;99.90;;;;;;6219523;23;20489;-85
2022/07/10 07:58:23;;;;;;;4.53;0.88;;;15.70;99.90;;;;;;6246420;23;20317;-82
2022/07/10 08:00:49;;;;;;;6.38;1.27;;;15.90;99.90;;;;;;6219686;23;20012;-83
2022/07/10 08:03:15;;;;;;;2.03;0.80;;;16.10;99.90;;;;;;6193683;23;20074;-83
2022/07/10 08:05:41;;;;;;;3.15;1.00;;;16.20;99.90;;;;;;6194165;23;20428;-84
2022/07/10 08:08:09;;;;;;;3.85;1.10;;;16.30;99.90;;;;;;6246177;23;20090;-86
2022/07/10 08:10:37;;;;;;;4.60;1.02;;;16.40;99.90;;;;;;6246376;23;20016;-85
2022/07/10 08:13:03;;;;;;;4.32;0.90;;;16.60;99.90;;;;;;6219455;23;20325;-84
2022/07/10 08:15:29;;;;;;;6.07;0.82;;;16.70;99.90;;;;;;6194388;23;20016;-84
2022/07/10 08:17:57;;;;;;;3.80;1.25;;;16.70;99.90;;;;;;6219798;23;20103;-85
2022/07/10 08:20:23;;;;;;;4.80;1.17;;;16.70;99.90;;;;;;6219529;23;20450;-83
2022/07/10 08:22:51;;;;;;;5.65;1.10;;;16.60;99.90;;;;;;6194440;23;20022;-83
2022/07/10 08:25:17;;;;;;;6.07;1.23;;;16.60;99.90;;;;;;6246066;23;20012;-82
2022/07/10 08:27:42;;;;;;;3.47;1.00;;;16.50;99.90;;;;;;6246009;23;20427;-82
2022/07/10 08:30:10;;;;;;;4.20;0.90;;;16.40;99.90;;;;;;6245600;23;20016;-83
2022/07/10 08:32:39;;;;;;;7.43;1.60;;;16.30;99.90;;;;;;6245495;23;20163;-81
2022/07/10 08:35:06;;;;;;;6.07;1.45;;;16.00;99.90;;;;;;6219007;23;20062;-80
2022/07/10 08:37:42;;;;;;;5.85;1.13;;;15.80;99.90;;;;;;6245579;23;20018;-80
2022/07/10 08:40:13;;;;;;;4.03;1.20;;;15.60;99.90;;;;;;6219035;23;20012;-81
2022/07/10 08:42:40;;;;;;;4.68;1.30;;;15.50;99.90;;;;;;6219134;23;20016;-81
2022/07/10 08:45:06;;;;;;;4.43;0.90;;;15.40;99.90;;;;;;6193334;23;20055;-82
2022/07/10 08:47:36;;;;;;;2.92;1.25;;;15.40;99.90;;;;;;6245663;23;20019;-82
2022/07/10 08:50:03;;;;;;;3.80;1.00;;;15.40;99.90;;;;;;6218916;23;20028;-81
2022/07/10 08:52:42;;;;;;;3.05;1.30;;;15.40;99.90;;;;;;6245825;23;20016;-81
2022/07/10 08:55:12;;;;;;;3.67;1.02;;;15.60;99.90;;;;;;6220301;23;20047;-82
2022/07/10 08:57:40;;;;;;;2.78;1.00;;;15.60;99.90;;;;;;6246873;23;20141;-82
2022/07/10 09:00:25;;;;;;;3.25;1.10;;;15.70;99.90;;;;;;6245919;23;20016;-84
2022/07/10 09:02:53;;;;;;;3.45;0.98;;;16.00;99.90;;;;;;6194562;23;20024;-81
2022/07/10 09:05:19;;;;;;;3.47;0.82;;;16.10;99.90;;;;;;6246070;23;20082;-82
2022/07/10 09:07:45;;;;;;;3.03;0.98;;;16.20;99.90;;;;;;6218617;23;20428;-83
2022/07/10 09:10:11;;;;;;;6.03;1.10;;;16.30;99.90;;;;;;6218838;23;20019;-82
2022/07/10 09:12:54;;;;;;;4.20;0.90;;;16.10;99.90;;;;;;6218854;23;20012;-83
2022/07/10 09:15:22;;;;;;;5.28;1.10;;;15.90;99.90;;;;;;6193379;23;20031;-82
2022/07/10 09:17:57;;;;;;;3.10;1.20;;;15.70;99.90;;;;;;6193706;23;20012;-80
2022/07/10 09:20:29;;;;;;;6.57;1.38;;;15.50;99.90;;;;;;6218060;23;20020;-81
2022/07/10 09:22:57;;;;;;;3.92;1.13;;;15.40;99.90;;;;;;6245512;23;20112;-81
2022/07/10 09:25:30;;;;;;;2.33;1.10;;;15.50;99.90;;;;;;6245199;23;20022;-82
2022/07/10 09:27:59;;;;;;;5.15;1.33;;;15.70;99.90;;;;;;6218752;23;20023;-81
2022/07/10 09:30:38;;;;;;;4.88;1.13;;;15.90;99.90;;;;;;6246628;23;20043;-81
2022/07/10 09:33:25;;;;;;;3.28;1.00;;;16.10;99.90;;;;;;6246049;23;20024;-82
2022/07/10 09:36:10;;;;;;;4.43;1.25;;;16.30;99.90;;;;;;6217527;23;20020;-81
2022/07/10 09:38:48;;;;;;;3.33;1.20;;;16.30;99.90;;;;;;6245809;23;20016;-82
2022/07/10 09:41:16;;;;;;;5.25;1.10;;;16.40;99.90;;;;;;6219062;23;20389;-83
2022/07/10 09:43:45;;;;;;;3.88;1.45;;;16.40;99.90;;;;;;6246596;23;20020;-84
2022/07/10 09:46:11;;;;;;;2.50;0.90;;;16.60;99.90;;;;;;6248170;23;20389;-80
2022/07/10 09:48:37;;;;;;;4.72;1.30;;;16.70;99.90;;;;;;6245055;23;20023;-81
2022/07/10 09:51:06;;;;;;;4.85;1.33;;;16.80;99.90;;;;;;6247360;23;20331;-84
2022/07/10 09:53:33;;;;;;;5.97;1.52;;;17.00;99.90;;;;;;6247337;23;20023;-83
2022/07/10 09:56:02;;;;;;;4.03;1.10;;;17.20;99.90;;;;;;6247200;23;20016;-84
2022/07/10 09:58:35;;;;;;;2.28;0.82;;;17.40;99.90;;;;;;6246877;23;20016;-83
2022/07/10 10:01:07;;;;;;;3.90;1.00;;;17.40;99.90;;;;;;6220073;23;20070;-84
2022/07/10 10:03:37;;;;;;;1.90;0.90;;;17.40;99.90;;;;;;6247373;23;20019;-82
2022/07/10 10:06:14;;;;;;;4.03;1.15;;;17.20;99.90;;;;;;6247130;23;20043;-81
2022/07/10 10:09:07;;;;;;;6.00;1.40;;;16.90;99.90;;;;;;6246577;23;20094;-85
2022/07/10 10:11:36;;;;;;;3.63;1.80;;;16.40;99.90;;;;;;6124192;23;20035;-83
2022/07/10 10:14:03;;;;;;;4.95;1.70;;;16.00;99.90;;;;;;6099515;23;20022;-81
2022/07/10 10:16:30;;;;;;;7.75;1.95;;;15.90;99.90;;;;;;6124252;23;20030;-82
2022/07/10 10:21:40;;;;;;;7.63;2.00;;;15.80;99.90;;;;;;6124278;23;20030;-83
2022/07/10 10:24:09;;;;;;;5.78;1.73;;;15.90;99.90;;;;;;6099925;23;20018;-84
2022/07/10 10:26:35;;;;;;;6.82;1.90;;;16.00;99.90;;;;;;6123960;23;20024;-84
2022/07/10 10:29:03;;;;;;;6.65;1.55;;;16.40;99.90;;;;;;6124135;23;20541;-82
2022/07/10 10:31:30;;;;;;;4.47;1.50;;;16.80;99.90;;;;;;6099668;23;20018;-84
2022/07/10 10:33:57;;;;;;;4.90;1.45;;;17.10;99.90;;;;;;6124864;23;20017;-85
2022/07/10 10:36:41;;;;;;;5.35;1.63;;;17.40;99.90;;;;;;6124169;23;20330;-84
2022/07/10 10:39:13;;;;;;;5.75;1.70;;;17.50;99.90;;;;;;6124018;23;20068;-83
2022/07/10 10:41:40;;;;;;;;;;;17.20;99.90;;;;;;6124837;23;20029;-83
2022/07/10 10:44:13;;;;;;;9.90;1.90;;;16.90;99.90;;;;;;6124327;23;19917;-82
2022/07/10 10:46:53;;;;;;;5.63;1.65;;;16.70;99.90;;;;;;6099532;23;20033;-83
2022/07/10 10:49:20;;;;;;;4.37;1.40;;;16.70;99.90;;;;;;6178922;23;20028;-83
2022/07/10 10:51:58;;;;;;;7.65;1.40;;;16.70;99.90;;;;;;6220239;23;20016;-85
2022/07/10 10:54:25;;;;;;;5.93;1.67;;;17.00;99.90;;;;;;6220826;23;20020;-84
2022/07/10 10:57:11;;;;;;;7.00;1.48;;;17.70;99.90;;;;;;6219718;23;20023;-86
2022/07/10 10:59:55;;;;;;;5.05;1.23;;;18.30;99.90;;;;;;6246613;23;20024;-83
2022/07/10 11:02:28;;;;;;;3.08;1.38;;;18.90;99.90;;;;;;6194847;23;20375;-84
2022/07/10 11:05:18;;;;;;;8.90;1.27;;;19.60;99.90;;;;;;6220831;23;20012;-86
2022/07/10 11:07:58;;;;;;;4.50;1.30;;;20.10;99.90;;;;;;6194985;23;20089;-84
2022/07/10 11:10:28;;;;;;;5.60;1.33;;;20.50;99.90;;;;;;6220108;23;20104;-84
2022/07/10 11:13:01;;;;;;;4.20;1.43;;;20.40;99.90;;;;;;6195431;23;20016;-85
2022/07/10 11:15:32;;;;;;;7.00;1.40;;;20.20;99.90;;;;;;6194607;23;20263;-88
2022/07/10 11:18:11;;;;;;;4.72;1.30;;;19.70;99.90;;;;;;6219874;23;20020;-86
2022/07/10 11:20:45;;;;;;;5.53;1.20;;;19.30;99.90;;;;;;6218895;23;20012;-86
2022/07/10 11:23:49;;;;;;;7.30;1.52;;;18.90;99.90;;;;;;6246433;23;20447;-84
2022/07/10 11:26:23;;;;;;;6.85;1.83;;;18.40;99.90;;;;;;6246834;23;20024;-88
2022/07/10 11:28:54;;;;;;;5.25;1.33;;;17.90;99.90;;;;;;6219999;23;20043;-83
2022/07/10 11:31:22;;;;;;;6.90;1.73;;;17.40;99.90;;;;;;6245760;23;20019;-84
2022/07/10 11:33:51;;;;;;;7.35;1.88;;;17.00;99.90;;;;;;6246905;23;20020;-86
2022/07/10 11:36:28;;;;;;;6.50;1.73;;;16.90;99.90;;;;;;6219722;23;20012;-85
2022/07/10 11:38:59;;;;;;;4.78;1.55;;;17.30;99.90;;;;;;6219775;23;20020;-88
2022/07/10 11:41:25;;;;;;;5.72;1.45;;;17.90;99.90;;;;;;6219643;23;20463;-86
2022/07/10 11:44:15;;;;;;;4.28;1.40;;;18.50;99.90;;;;;;6219490;23;20016;-86
2022/07/10 11:46:44;;;;;;;8.38;1.65;;;19.20;99.90;;;;;;6220564;23;20514;-87
2022/07/10 11:49:10;;;;;;;4.30;1.45;;;19.60;99.90;;;;;;6220450;23;20024;-86
2022/07/10 11:51:39;;;;;;;4.38;1.60;;;19.40;99.90;;;;;;6221296;23;20024;-83
2022/07/10 11:54:11;;;;;;;3.13;1.27;;;18.60;99.90;;;;;;6246415;23;20096;-81
2022/07/10 11:56:41;;;;;;;8.65;2.00;;;17.90;99.90;;;;;;6221400;23;20020;-85
2022/07/10 11:59:11;;;;;;;4.97;1.83;;;17.60;99.90;;;;;;6194360;23;20478;-82
2022/07/10 12:01:48;;;;;;;4.65;1.60;;;17.50;99.90;;;;;;6246134;23;20016;-84
2022/07/10 12:04:16;;;;;;;4.25;1.25;;;17.40;99.90;;;;;;6194248;23;20031;-84
2022/07/10 12:06:44;;;;;;;2.88;1.17;;;17.40;99.90;;;;;;6215904;23;20095;-85
2022/07/10 12:09:18;;;;;;;3.50;1.00;;;17.50;99.90;;;;;;6218478;23;20020;-83
2022/07/10 12:11:57;;;;;;;2.47;0.95;;;17.70;99.90;;;;;;6193358;23;20474;-83
2022/07/10 12:14:23;;;;;;;2.33;0.90;;;17.70;99.90;;;;;;6245053;23;20020;-82
2022/07/10 12:16:51;;;;;;;3.58;0.90;;;17.80;99.90;;;;;;6245367;23;20028;-86
2022/07/10 12:19:33;;;;;;;3.03;1.00;;;18.10;99.90;;;;;;6193445;23;20013;-85
2022/07/10 12:21:59;;;;;;;5.70;1.20;;;18.40;99.90;;;;;;6245313;23;20020;-85
2022/07/10 12:24:25;;;;;;;3.65;1.08;;;18.80;99.90;;;;;;6218773;23;20016;-84
2022/07/10 12:26:52;;;;;;;3.95;0.98;;;19.00;99.90;;;;;;6218440;23;20016;-87
2022/07/10 12:29:25;;;;;;;3.50;1.17;;;19.00;99.90;;;;;;6196941;23;20059;-86
2022/07/10 12:32:02;;;;;;;4.10;1.20;;;19.00;99.90;;;;;;6245315;23;20016;-84
2022/07/10 12:34:47;;;;;;;4.30;1.10;;;19.10;99.90;;;;;;6218596;23;20013;-85
2022/07/10 12:37:14;;;;;;;5.50;1.15;;;18.90;99.90;;;;;;6218174;23;20016;-86
2022/07/10 12:39:52;;;;;;;9.20;1.48;;;18.90;99.90;;;;;;6245265;23;20205;-86
2022/07/10 12:42:28;;;;;;;6.45;1.45;;;19.00;99.90;;;;;;6218546;23;20012;-89
2022/07/10 12:44:54;;;;;;;3.70;1.30;;;19.10;99.90;;;;;;6245469;23;20020;-88
2022/07/10 12:47:21;;;;;;;5.38;1.50;;;19.20;99.90;;;;;;6245011;23;20059;-86
2022/07/10 12:49:55;;;;;;;3.70;1.20;;;19.50;99.90;;;;;;6244759;23;20519;-87
2022/07/10 12:52:32;;;;;;;4.35;1.00;;;19.60;99.90;;;;;;6219176;23;20016;-87
2022/07/10 12:55:14;;;;;;;5.90;0.93;;;19.50;99.90;;;;;;6228085;23;20051;-89
2022/07/10 12:57:59;;;;;;;3.60;1.10;;;19.50;99.90;;;;;;6225231;23;20031;-88
2022/07/10 13:00:36;;;;;;;5.50;1.13;;;19.30;99.90;;;;;;6221732;23;20099;-86
2022/07/10 13:03:01;;;;;;;5.72;1.20;;;19.00;99.90;;;;;;6245534;23;20023;-85
2022/07/10 13:05:40;;;;;;;3.47;1.20;;;18.90;99.90;;;;;;6193548;23;20081;-87